Terminal Aerodrome Forecast
Issued by NWS

Home | Current Version | Previous Version | Graphics & Text | Print | Product List | Glossary Off
Versions: 1 2 3 4 5 6 7 8 9 10 11 12

000
FTUS43 KBIS 221100
TAFJMS
TAF
KJMS 221132Z 2212/2312 19015KT P6SM VCSH BKN070 OVC090
     FM221700 24013KT P6SM -SHRA BKN070 OVC090
     FM230000 25006KT P6SM SCT070=

USA.gov is the U.S. government's official web portal to all federal, state and local government web resources and services.